createdAt,value
2022-08-30T00:00:11.582Z,12.94
2022-08-30T00:01:14.106Z,12.94
2022-08-30T00:02:11.615Z,12.94
2022-08-30T00:03:11.750Z,12.78
2022-08-30T00:04:11.589Z,12.94
2022-08-30T00:05:11.582Z,12.94
2022-08-30T00:06:11.593Z,12.78
2022-08-30T00:07:11.596Z,12.94
2022-08-30T00:08:11.603Z,12.78
2022-08-30T00:09:11.589Z,12.78
2022-08-30T00:10:11.601Z,12.94
2022-08-30T00:11:11.592Z,12.78
2022-08-30T00:12:11.596Z,13.11
2022-08-30T00:13:11.605Z,12.78
2022-08-30T00:14:11.601Z,13.22
2022-08-30T00:15:11.765Z,13.11
2022-08-30T00:16:11.604Z,13.39
2022-08-30T00:17:11.602Z,13.11
2022-08-30T00:18:11.604Z,13.11
2022-08-30T00:19:11.602Z,12.78
2022-08-30T00:20:11.597Z,12.94
2022-08-30T00:21:11.607Z,12.94
2022-08-30T00:22:11.602Z,12.94
2022-08-30T00:23:11.604Z,12.94
2022-08-30T00:24:11.610Z,13.22
2022-08-30T00:25:11.605Z,13.11
2022-08-30T00:26:11.616Z,12.94
2022-08-30T00:27:11.614Z,12.89
2022-08-30T00:28:11.610Z,12.61
2022-08-30T00:29:11.611Z,12.72
2022-08-30T00:30:11.604Z,13.11
2022-08-30T00:31:13.465Z,12.94
2022-08-30T00:32:11.623Z,12.78
2022-08-30T00:33:11.614Z,12.78
2022-08-30T00:34:11.616Z,12.94
2022-08-30T00:35:11.623Z,12.56
2022-08-30T00:36:11.625Z,13
2022-08-30T00:37:11.627Z,13
2022-08-30T00:38:11.623Z,12.89
2022-08-30T00:39:11.623Z,12.89
2022-08-30T00:40:11.677Z,12.72
2022-08-30T00:41:11.626Z,12.89
2022-08-30T00:42:11.633Z,12.5
2022-08-30T00:43:13.862Z,12.72
2022-08-30T00:44:11.625Z,12.78
2022-08-30T00:45:11.631Z,12.72
2022-08-30T00:46:11.708Z,12.72
2022-08-30T00:47:11.641Z,12.89
2022-08-30T00:48:11.640Z,13.06
2022-08-30T00:49:11.634Z,12.89
2022-08-30T00:50:11.631Z,12.67
2022-08-30T00:51:11.646Z,12.56
2022-08-30T00:52:11.643Z,12.5
2022-08-30T00:53:11.642Z,12.56
2022-08-30T00:54:11.648Z,12.33
2022-08-30T00:55:11.649Z,12.17
2022-08-30T00:56:11.647Z,12.33
2022-08-30T00:57:11.649Z,11.89
2022-08-30T00:58:11.655Z,12
2022-08-30T00:59:11.645Z,12.17
2022-08-30T01:00:11.657Z,11.78
2022-08-30T01:01:11.685Z,11.94
2022-08-30T01:02:11.676Z,11.89
2022-08-30T01:03:11.657Z,11.89
2022-08-30T01:04:11.658Z,11.89
2022-08-30T01:05:11.655Z,11.83
2022-08-30T01:06:11.647Z,11.89
2022-08-30T01:07:11.654Z,11.83
2022-08-30T01:08:11.662Z,11.83
2022-08-30T01:09:11.660Z,11.94
2022-08-30T01:10:11.667Z,11.94
2022-08-30T01:11:11.666Z,12.11
2022-08-30T01:12:11.666Z,12.28
2022-08-30T01:13:11.665Z,12.33
2022-08-30T01:14:11.667Z,12.44
2022-08-30T01:15:11.674Z,12.56
2022-08-30T01:16:11.735Z,12.72
2022-08-30T01:17:11.670Z,12.44
2022-08-30T01:18:12.478Z,12.56
2022-08-30T01:19:11.671Z,12.44
2022-08-30T01:20:11.673Z,12.56
2022-08-30T01:21:11.683Z,12.72
2022-08-30T01:22:11.680Z,12.44
2022-08-30T01:23:11.682Z,12.28
2022-08-30T01:24:11.682Z,12.11
2022-08-30T01:25:11.693Z,12.28
2022-08-30T01:26:11.680Z,12.28
2022-08-30T01:27:11.688Z,12.28
2022-08-30T01:28:11.688Z,12.28
2022-08-30T01:29:11.693Z,12.28
2022-08-30T01:30:11.686Z,12.11
2022-08-30T01:31:11.765Z,12.44
2022-08-30T01:32:11.694Z,12.28
2022-08-30T01:33:11.746Z,12.11
2022-08-30T01:34:11.696Z,12.28
2022-08-30T01:35:11.701Z,12.11
2022-08-30T01:36:11.695Z,11.94
2022-08-30T01:37:11.699Z,11.94
2022-08-30T01:38:11.698Z,11.83
2022-08-30T01:39:11.696Z,11.83
2022-08-30T01:40:11.737Z,11.72
2022-08-30T01:41:11.687Z,11.83
2022-08-30T01:42:11.700Z,11.83
2022-08-30T01:43:11.699Z,11.83
2022-08-30T01:44:11.698Z,11.83
2022-08-30T01:45:11.696Z,11.83
2022-08-30T01:46:11.759Z,11.83
2022-08-30T01:47:11.707Z,12.11
2022-08-30T01:48:11.706Z,11.72
2022-08-30T01:49:11.704Z,11.94
2022-08-30T01:50:11.710Z,11.83
2022-08-30T01:51:11.707Z,11.94
2022-08-30T01:52:11.709Z,11.94
2022-08-30T01:53:12.327Z,11.94
2022-08-30T01:54:11.713Z,12.11
2022-08-30T01:55:11.710Z,11.83
2022-08-30T01:56:11.722Z,11.83
2022-08-30T01:57:11.721Z,11.83
2022-08-30T01:58:11.711Z,11.83
2022-08-30T01:59:11.723Z,11.83
2022-08-30T02:00:11.725Z,11.94
2022-08-30T02:01:11.760Z,11.94
2022-08-30T02:02:11.722Z,12.11
2022-08-30T02:03:11.723Z,12.11
2022-08-30T02:04:11.804Z,11.94
2022-08-30T02:05:11.719Z,12.28
2022-08-30T02:06:11.725Z,12.11
2022-08-30T02:07:11.722Z,12.11
2022-08-30T02:08:11.727Z,12.28
2022-08-30T02:09:11.731Z,12.56
2022-08-30T02:10:11.728Z,12.44
2022-08-30T02:11:11.724Z,12.44
2022-08-30T02:12:11.722Z,12.28
2022-08-30T02:13:11.733Z,12.11
2022-08-30T02:14:11.728Z,12.11
2022-08-30T02:15:11.736Z,11.94
2022-08-30T02:16:11.771Z,12.44
2022-08-30T02:17:11.733Z,12.28
2022-08-30T02:18:11.735Z,12.28
2022-08-30T02:19:12.816Z,12.28
2022-08-30T02:20:11.731Z,12.11
2022-08-30T02:21:11.740Z,12.28
2022-08-30T02:22:11.734Z,12.28
2022-08-30T02:23:11.746Z,12.56
2022-08-30T02:24:11.738Z,12.11
2022-08-30T02:25:18.633Z,12.44
2022-08-30T02:26:11.743Z,12.28
2022-08-30T02:27:11.741Z,12.28
2022-08-30T02:28:11.740Z,12.11
2022-08-30T02:29:11.746Z,12.28
2022-08-30T02:30:11.752Z,11.94
2022-08-30T02:31:11.811Z,11.83
2022-08-30T02:32:11.752Z,11.83
2022-08-30T02:33:11.746Z,12.11
2022-08-30T02:34:11.754Z,12.11
2022-08-30T02:35:11.748Z,12.28
2022-08-30T02:36:11.753Z,11.83
2022-08-30T02:37:11.763Z,11.94
2022-08-30T02:38:11.749Z,11.94
2022-08-30T02:39:11.752Z,11.83
2022-08-30T02:40:11.799Z,12.28
2022-08-30T02:41:11.751Z,11.94
2022-08-30T02:42:11.752Z,12.28
2022-08-30T02:43:11.751Z,12.28
2022-08-30T02:44:11.753Z,12.28
2022-08-30T02:45:11.756Z,12.28
2022-08-30T02:46:11.783Z,12.44
2022-08-30T02:47:11.756Z,12.28
2022-08-30T02:48:11.748Z,12.56
2022-08-30T02:49:34.543Z,12.44
2022-08-30T02:50:11.758Z,12.72
2022-08-30T02:51:11.858Z,12.72
2022-08-30T02:52:11.761Z,12.44
2022-08-30T02:53:14.156Z,12.72
2022-08-30T02:54:11.754Z,12.72
2022-08-30T02:55:11.760Z,12.72
2022-08-30T02:56:11.750Z,12.56
2022-08-30T02:57:20.209Z,12.28
2022-08-30T02:58:11.763Z,12.28
2022-08-30T02:59:11.749Z,12.44
2022-08-30T03:00:11.761Z,12.28
2022-08-30T03:01:11.823Z,12.28
2022-08-30T03:02:11.758Z,11.83
2022-08-30T03:03:11.765Z,12.11
2022-08-30T03:04:11.756Z,11.94
2022-08-30T03:05:11.757Z,12.11
2022-08-30T03:06:11.760Z,12.28
2022-08-30T03:07:11.753Z,12.28
2022-08-30T03:08:11.755Z,12.11
2022-08-30T03:09:11.755Z,12.28
2022-08-30T03:10:11.766Z,12.28
2022-08-30T03:11:11.764Z,12.28
2022-08-30T03:12:11.763Z,12.28
2022-08-30T03:13:11.769Z,12.28
2022-08-30T03:14:11.767Z,12.56
2022-08-30T03:15:11.769Z,12.56
2022-08-30T03:16:11.826Z,12.44
2022-08-30T03:17:12.813Z,12.44
2022-08-30T03:18:11.764Z,12.72
2022-08-30T03:19:11.778Z,12.56
2022-08-30T03:20:11.783Z,12.72
2022-08-30T03:21:11.778Z,12.72
2022-08-30T03:22:11.774Z,12.44
2022-08-30T03:23:11.771Z,12.56
2022-08-30T03:24:11.779Z,12.56
2022-08-30T03:25:11.772Z,12.72
2022-08-30T03:26:11.782Z,12.72
2022-08-30T03:27:11.782Z,12.44
2022-08-30T03:28:11.774Z,12.72
2022-08-30T03:29:11.782Z,12.89
2022-08-30T03:30:11.783Z,12.72
2022-08-30T03:31:11.785Z,12.56
2022-08-30T03:32:11.896Z,12.72
2022-08-30T03:33:11.793Z,12.44
2022-08-30T03:34:11.791Z,12.44
2022-08-30T03:35:11.800Z,12.72
2022-08-30T03:36:11.798Z,12.72
2022-08-30T03:37:11.798Z,12.72
2022-08-30T03:38:11.799Z,12.72
2022-08-30T03:39:12.506Z,12.72
2022-08-30T03:40:11.845Z,12.72
2022-08-30T03:41:11.807Z,12.56
2022-08-30T03:42:11.803Z,12.89
2022-08-30T03:43:11.804Z,12.89
2022-08-30T03:44:11.804Z,12.56
2022-08-30T03:45:11.809Z,12.89
2022-08-30T03:46:11.869Z,12.44
2022-08-30T03:47:11.804Z,12.72
2022-08-30T03:48:11.809Z,13.06
2022-08-30T03:49:11.812Z,12.72
2022-08-30T03:50:11.807Z,12.72
2022-08-30T03:51:11.808Z,13.06
2022-08-30T03:52:11.810Z,13.06
2022-08-30T03:53:11.817Z,12.89
2022-08-30T03:54:11.813Z,13.06
2022-08-30T03:55:11.825Z,12.89
2022-08-30T03:56:11.818Z,12.89
2022-08-30T03:57:17.612Z,12.89
2022-08-30T03:58:11.818Z,13.06
2022-08-30T03:59:11.819Z,13.06
2022-08-30T04:00:11.821Z,13.06
2022-08-30T04:01:11.854Z,13.06
2022-08-30T04:02:11.864Z,12.89
2022-08-30T04:03:11.826Z,12.89
2022-08-30T04:04:11.830Z,12.89
2022-08-30T04:05:11.820Z,13.17
2022-08-30T04:06:11.836Z,12.56
2022-08-30T04:07:11.829Z,12.72
2022-08-30T04:08:11.828Z,13.17
2022-08-30T04:09:11.834Z,12.89
2022-08-30T04:10:11.823Z,12.72
2022-08-30T04:11:11.832Z,13.06
2022-08-30T04:12:11.829Z,12.89
2022-08-30T04:13:11.827Z,12.89
2022-08-30T04:14:11.837Z,13.06
2022-08-30T04:15:11.840Z,12.89
2022-08-30T04:16:11.894Z,13.06
2022-08-30T04:17:11.841Z,12.56
2022-08-30T04:18:11.845Z,13.06
2022-08-30T04:19:11.837Z,12.28
2022-08-30T04:20:11.834Z,12.72
2022-08-30T04:21:14.089Z,12.89
2022-08-30T04:22:11.841Z,12.72
2022-08-30T04:23:11.842Z,12.89
2022-08-30T04:24:11.842Z,13.17
2022-08-30T04:25:13.008Z,12.89
2022-08-30T04:26:11.841Z,13.06
2022-08-30T04:27:11.849Z,13.17
2022-08-30T04:28:11.839Z,12.72
2022-08-30T04:29:11.850Z,13.17
2022-08-30T04:30:11.847Z,13.17
2022-08-30T04:31:12.142Z,13.17
2022-08-30T04:32:11.845Z,13.17
2022-08-30T04:33:11.852Z,13.17
2022-08-30T04:34:11.847Z,13.17
2022-08-30T04:35:11.859Z,13.17
2022-08-30T04:36:11.854Z,13.17
2022-08-30T04:37:11.852Z,13.17
2022-08-30T04:38:11.863Z,13.17
2022-08-30T04:39:11.863Z,13.17
2022-08-30T04:40:11.902Z,13.06
2022-08-30T04:41:11.867Z,13.17
2022-08-30T04:42:11.867Z,13.17
2022-08-30T04:43:11.867Z,13.17
2022-08-30T04:44:14.301Z,13.17
2022-08-30T04:45:11.875Z,13.17
2022-08-30T04:46:11.902Z,13.17
2022-08-30T04:47:11.871Z,13.06
2022-08-30T04:48:11.887Z,13.06
2022-08-30T04:49:11.873Z,13.17
2022-08-30T04:50:11.873Z,13.17
2022-08-30T04:51:11.870Z,13.17
2022-08-30T04:52:11.896Z,13.33
2022-08-30T04:53:11.875Z,13.33
2022-08-30T04:54:11.883Z,13.17
2022-08-30T04:55:11.882Z,13.17
2022-08-30T04:56:11.883Z,13.5
2022-08-30T04:57:11.882Z,13.33
2022-08-30T04:58:11.884Z,13.5
2022-08-30T04:59:11.881Z,13.67
2022-08-30T05:00:11.881Z,13.5
2022-08-30T05:01:11.915Z,13.17
2022-08-30T05:02:14.353Z,13.5
2022-08-30T05:03:11.892Z,13.5
2022-08-30T05:04:11.917Z,13.33
2022-08-30T05:05:11.890Z,13.67
2022-08-30T05:06:11.898Z,13.33
2022-08-30T05:07:11.908Z,13.33
2022-08-30T05:08:11.902Z,13.33
2022-08-30T05:09:11.898Z,13.33
2022-08-30T05:10:11.901Z,13.5
2022-08-30T05:11:11.904Z,13.5
2022-08-30T05:12:11.899Z,13.06
2022-08-30T05:13:11.893Z,13.33
2022-08-30T05:14:11.919Z,13.5
2022-08-30T05:15:11.899Z,13.5
2022-08-30T05:16:12.027Z,13.67
2022-08-30T05:17:11.901Z,13.33
2022-08-30T05:18:14.146Z,13.33
2022-08-30T05:19:11.907Z,13.33
2022-08-30T05:20:11.905Z,13.33
2022-08-30T05:21:11.910Z,13.17
2022-08-30T05:22:11.908Z,13.33
2022-08-30T05:23:11.903Z,13.17
2022-08-30T05:24:11.909Z,13.17
2022-08-30T05:25:14.638Z,13.33
2022-08-30T05:26:11.902Z,13.33
2022-08-30T05:27:11.909Z,13.33
2022-08-30T05:28:11.911Z,13.67
2022-08-30T05:29:11.915Z,13.33
2022-08-30T05:30:11.914Z,13.5
2022-08-30T05:31:13.890Z,13.67
2022-08-30T05:32:11.918Z,13.67
2022-08-30T05:33:11.920Z,13.33
2022-08-30T05:34:11.921Z,13.67
2022-08-30T05:35:11.924Z,13.5
2022-08-30T05:36:11.922Z,13.67
2022-08-30T05:37:11.926Z,13.67
2022-08-30T05:38:11.938Z,13.5
2022-08-30T05:39:11.927Z,13.67
2022-08-30T05:40:11.955Z,13.67
2022-08-30T05:41:11.933Z,13.67
2022-08-30T05:42:11.926Z,13.67
2022-08-30T05:43:11.933Z,13.78
2022-08-30T05:44:11.929Z,13.78
2022-08-30T05:45:11.933Z,13.33
2022-08-30T05:46:11.978Z,13.67
2022-08-30T05:47:11.941Z,13.94
2022-08-30T05:48:12.928Z,13.78
2022-08-30T05:49:11.938Z,13.67
2022-08-30T05:50:11.927Z,13.78
2022-08-30T05:51:11.936Z,13.94
2022-08-30T05:52:11.933Z,14.06
2022-08-30T05:53:11.933Z,14.06
2022-08-30T05:54:11.934Z,13.78
2022-08-30T05:55:11.939Z,13.67
2022-08-30T05:56:11.935Z,13.94
2022-08-30T05:57:11.937Z,13.78
2022-08-30T05:58:11.938Z,14.06
2022-08-30T05:59:11.938Z,14.06
2022-08-30T06:00:11.946Z,14.06
2022-08-30T06:01:11.945Z,14.06
2022-08-30T06:02:12.024Z,14.39
2022-08-30T06:03:11.996Z,14.06
2022-08-30T06:04:11.943Z,14.06
2022-08-30T06:05:14.134Z,14.06
2022-08-30T06:06:11.948Z,14.56
2022-08-30T06:07:13.233Z,14.28
2022-08-30T06:08:11.953Z,14.06
2022-08-30T06:09:11.953Z,14.06
2022-08-30T06:10:11.955Z,14.39
2022-08-30T06:11:11.962Z,14.28
2022-08-30T06:12:11.953Z,14.56
2022-08-30T06:13:11.958Z,14.56
2022-08-30T06:14:11.954Z,14.67
2022-08-30T06:15:11.951Z,14.56
2022-08-30T06:16:12.031Z,14.67
2022-08-30T06:17:11.957Z,14.56
2022-08-30T06:18:12.016Z,14.89
2022-08-30T06:19:11.966Z,14.89
2022-08-30T06:20:11.964Z,14.28
2022-08-30T06:21:15.058Z,14.89
2022-08-30T06:22:11.963Z,14.89
2022-08-30T06:23:11.965Z,15
2022-08-30T06:24:11.960Z,14.56
2022-08-30T06:25:11.973Z,14.56
2022-08-30T06:26:11.970Z,14.89
2022-08-30T06:27:11.968Z,15
2022-08-30T06:28:12.030Z,15
2022-08-30T06:29:11.978Z,15
2022-08-30T06:30:11.984Z,15.17
2022-08-30T06:31:12.077Z,15
2022-08-30T06:32:11.977Z,15
2022-08-30T06:33:11.974Z,14.89
2022-08-30T06:34:11.970Z,14.28
2022-08-30T06:35:11.983Z,14.56
2022-08-30T06:36:11.976Z,14.67
2022-08-30T06:37:11.977Z,14.89
2022-08-30T06:38:11.980Z,15
2022-08-30T06:39:11.975Z,15.17
2022-08-30T06:40:12.039Z,15.22
2022-08-30T06:41:11.983Z,15
2022-08-30T06:42:11.975Z,15
2022-08-30T06:43:11.975Z,14.78
2022-08-30T06:44:11.981Z,14.78
2022-08-30T06:45:11.991Z,14.67
2022-08-30T06:46:12.010Z,14.78
2022-08-30T06:47:11.976Z,14.83
2022-08-30T06:48:12.105Z,14.78
2022-08-30T06:49:11.988Z,14.78
2022-08-30T06:50:12.218Z,15.06
2022-08-30T06:51:11.985Z,15.06
2022-08-30T06:52:11.983Z,15.11
2022-08-30T06:53:11.989Z,15.17
2022-08-30T06:54:12.270Z,15.06
2022-08-30T06:55:11.997Z,14.78
2022-08-30T06:56:16.333Z,14.89
2022-08-30T06:57:11.990Z,14.89
2022-08-30T06:58:12.007Z,15.06
2022-08-30T06:59:12.001Z,14.78
2022-08-30T07:00:11.999Z,14.44
2022-08-30T07:01:12.008Z,15.06
2022-08-30T07:02:12.076Z,15.17
2022-08-30T07:03:12.092Z,15.44
2022-08-30T07:04:11.991Z,15.44
2022-08-30T07:05:14.234Z,15.61
2022-08-30T07:06:11.999Z,15.61
2022-08-30T07:07:12.001Z,15.17
2022-08-30T07:08:12.016Z,15.61
2022-08-30T07:09:12.000Z,15.61
2022-08-30T07:10:12.006Z,15.44
2022-08-30T07:11:12.001Z,16.06
2022-08-30T07:12:12.008Z,15.89
2022-08-30T07:13:11.999Z,15.78
2022-08-30T07:14:12.006Z,15.78
2022-08-30T07:15:12.006Z,15.78
2022-08-30T07:16:12.052Z,15.78
2022-08-30T07:17:12.012Z,16.06
2022-08-30T07:18:12.011Z,16.39
2022-08-30T07:19:18.617Z,15.89
2022-08-30T07:20:12.009Z,16.06
2022-08-30T07:21:12.003Z,15.89
2022-08-30T07:22:12.008Z,16.06
2022-08-30T07:23:12.007Z,16.56
2022-08-30T07:24:12.006Z,16.56
2022-08-30T07:25:12.006Z,16.06
2022-08-30T07:26:12.005Z,15.44
2022-08-30T07:27:12.002Z,15.17
2022-08-30T07:28:12.023Z,15.06
2022-08-30T07:29:12.015Z,15.78
2022-08-30T07:30:12.013Z,15.44
2022-08-30T07:31:12.016Z,15.61
2022-08-30T07:32:12.023Z,15.61
2022-08-30T07:33:12.003Z,15.44
2022-08-30T07:34:12.022Z,15.78
2022-08-30T07:35:12.011Z,15.61
2022-08-30T07:36:12.012Z,15.17
2022-08-30T07:37:14.576Z,15.44
2022-08-30T07:38:12.008Z,15.61
2022-08-30T07:39:12.011Z,16.06
2022-08-30T07:40:12.098Z,16.06
2022-08-30T07:41:12.010Z,15.61
2022-08-30T07:42:12.011Z,15.44
2022-08-30T07:43:12.015Z,15.28
2022-08-30T07:44:12.005Z,15.61
2022-08-30T07:45:12.012Z,16.06
2022-08-30T07:46:12.074Z,16.56
2022-08-30T07:47:12.008Z,16.39
2022-08-30T07:48:12.007Z,16.06
2022-08-30T07:49:12.013Z,16.39
2022-08-30T07:50:12.003Z,16.39
2022-08-30T07:51:12.010Z,16.06
2022-08-30T07:52:12.018Z,15.78
2022-08-30T07:53:12.052Z,16.22
2022-08-30T07:54:12.002Z,16.56
2022-08-30T07:55:12.015Z,16.22
2022-08-30T07:56:12.014Z,16.06
2022-08-30T07:57:12.016Z,17
2022-08-30T07:58:12.014Z,17.33
2022-08-30T07:59:12.021Z,16.89
2022-08-30T08:00:12.034Z,17
2022-08-30T08:01:12.114Z,16.89
2022-08-30T08:02:12.043Z,17
2022-08-30T08:03:12.020Z,17.33
2022-08-30T08:04:12.369Z,17.5
2022-08-30T08:05:16.505Z,16.39
2022-08-30T08:06:12.027Z,17
2022-08-30T08:07:12.026Z,17
2022-08-30T08:08:12.031Z,16.72
2022-08-30T08:09:12.027Z,17.17
2022-08-30T08:10:12.031Z,17.83
2022-08-30T08:11:12.037Z,17.33
2022-08-30T08:12:12.018Z,17.5
2022-08-30T08:13:12.034Z,18.28
2022-08-30T08:14:12.060Z,18.44
2022-08-30T08:15:12.032Z,18.89
2022-08-30T08:16:12.100Z,17.94
2022-08-30T08:17:12.039Z,18.28
2022-08-30T08:18:12.039Z,17.83
2022-08-30T08:19:12.040Z,18.94
2022-08-30T08:20:12.037Z,18.78
2022-08-30T08:21:12.047Z,18.94
2022-08-30T08:22:23.446Z,18.28
2022-08-30T08:23:12.043Z,17.94
2022-08-30T08:24:12.038Z,18.94
2022-08-30T08:25:12.046Z,18.61
2022-08-30T08:26:12.071Z,18.44
2022-08-30T08:27:12.044Z,18.44
2022-08-30T08:28:12.055Z,18.44
2022-08-30T08:29:12.052Z,18.61
2022-08-30T08:30:12.051Z,19.44
2022-08-30T08:31:12.089Z,19.06
2022-08-30T08:32:12.053Z,18.28
2022-08-30T08:33:12.055Z,18.44
2022-08-30T08:34:12.054Z,17.94
2022-08-30T08:35:12.055Z,18.94
2022-08-30T08:36:12.059Z,19.56
2022-08-30T08:37:12.057Z,19.28
2022-08-30T08:38:12.068Z,19.94
2022-08-30T08:39:12.061Z,19.78
2022-08-30T08:40:12.094Z,19.44
2022-08-30T08:41:12.061Z,19.28
2022-08-30T08:42:12.062Z,19.28
2022-08-30T08:43:12.063Z,19.06
2022-08-30T08:44:12.068Z,18.94
2022-08-30T08:45:12.069Z,18.44
2022-08-30T08:46:12.207Z,17.83
2022-08-30T08:47:12.071Z,17.5
2022-08-30T08:48:12.074Z,18.44
2022-08-30T08:49:12.069Z,18.17
2022-08-30T08:50:12.077Z,18.17
2022-08-30T08:51:12.078Z,18.28
2022-08-30T08:52:12.074Z,18.94
2022-08-30T08:53:20.680Z,18.94
2022-08-30T08:54:12.082Z,18.44
2022-08-30T08:55:12.072Z,17.94
2022-08-30T08:56:12.182Z,17.94
2022-08-30T08:57:13.893Z,18.17
2022-08-30T08:58:12.102Z,18.94
2022-08-30T08:59:12.074Z,19.28
2022-08-30T09:00:12.079Z,18.44
2022-08-30T09:01:12.162Z,17.94
2022-08-30T09:02:12.081Z,18.44
2022-08-30T09:03:12.087Z,18.28
2022-08-30T09:04:12.093Z,18.94
2022-08-30T09:05:12.124Z,18.94
2022-08-30T09:06:12.089Z,18.94
2022-08-30T09:07:12.088Z,19.28
2022-08-30T09:08:12.088Z,19.44
2022-08-30T09:09:12.080Z,19.56
2022-08-30T09:10:12.087Z,19.44
2022-08-30T09:11:12.086Z,19.56
2022-08-30T09:12:12.094Z,19.94
2022-08-30T09:13:12.946Z,20.33
2022-08-30T09:14:12.089Z,19.78
2022-08-30T09:15:12.092Z,19.94
2022-08-30T09:16:14.020Z,20.22
2022-08-30T09:17:12.095Z,20.33
2022-08-30T09:18:16.905Z,19.56
2022-08-30T09:19:12.096Z,19.44
2022-08-30T09:20:12.103Z,19.94
2022-08-30T09:21:12.098Z,19.94
2022-08-30T09:22:12.099Z,20.22
2022-08-30T09:23:12.114Z,20.33
2022-08-30T09:24:12.097Z,20.83
2022-08-30T09:25:12.098Z,20.22
2022-08-30T09:26:12.103Z,19.94
2022-08-30T09:27:12.095Z,19.56
2022-08-30T09:28:12.101Z,19.56
2022-08-30T09:29:12.110Z,19.06
2022-08-30T09:30:14.438Z,18.94
2022-08-30T09:31:12.601Z,19.06
2022-08-30T09:32:25.046Z,19.28
2022-08-30T09:33:12.107Z,19.44
2022-08-30T09:34:12.117Z,19.94
2022-08-30T09:35:12.104Z,19.94
2022-08-30T09:36:12.111Z,19.78
2022-08-30T09:37:12.114Z,19.61
2022-08-30T09:38:13.025Z,19.56
2022-08-30T09:39:12.113Z,19.94
2022-08-30T09:40:12.175Z,19.89
2022-08-30T09:41:12.112Z,20.83
2022-08-30T09:42:12.137Z,20.83
2022-08-30T09:43:12.172Z,20.94
2022-08-30T09:44:12.124Z,20.56
2022-08-30T09:45:12.116Z,20.56
2022-08-30T09:46:16.361Z,20.72
2022-08-30T09:47:12.117Z,21.56
2022-08-30T09:48:12.150Z,22.39
2022-08-30T09:49:12.122Z,22.56
2022-08-30T09:50:12.121Z,22.94
2022-08-30T09:51:12.122Z,23.5
2022-08-30T09:52:12.121Z,23.17
2022-08-30T09:53:12.119Z,23.39
2022-08-30T09:54:17.579Z,22.94
2022-08-30T09:55:12.128Z,22.39
2022-08-30T09:56:12.118Z,22.94
2022-08-30T09:57:12.787Z,23.67
2022-08-30T09:58:12.912Z,22.94
2022-08-30T09:59:12.119Z,23.67
2022-08-30T10:00:13.508Z,23.67
2022-08-30T10:01:12.174Z,24
2022-08-30T10:02:12.168Z,24.33
2022-08-30T10:03:12.121Z,24
2022-08-30T10:04:12.133Z,22.94
2022-08-30T10:05:12.131Z,22.61
2022-08-30T10:06:12.130Z,22.61
2022-08-30T10:07:12.132Z,22.39
2022-08-30T10:08:12.541Z,22.06
2022-08-30T10:09:12.126Z,23.11
2022-08-30T10:10:12.143Z,24
2022-08-30T10:11:12.127Z,24.17
2022-08-30T10:12:12.132Z,24.17
2022-08-30T10:13:12.141Z,23.11
2022-08-30T10:14:12.140Z,22.61
2022-08-30T10:15:12.137Z,22.61
2022-08-30T10:16:12.147Z,22.39
2022-08-30T10:17:12.313Z,22.94
2022-08-30T10:18:12.149Z,23.44
2022-08-30T10:19:12.148Z,23.44
2022-08-30T10:20:12.231Z,23.11
2022-08-30T10:21:15.601Z,22.61
2022-08-30T10:22:12.151Z,23.11
2022-08-30T10:23:12.154Z,23.67
2022-08-30T10:24:12.150Z,23.67
2022-08-30T10:25:12.157Z,23.28
2022-08-30T10:26:12.148Z,23.67
2022-08-30T10:27:12.153Z,23.28
2022-08-30T10:28:12.152Z,23.28
2022-08-30T10:29:12.144Z,22.94
2022-08-30T10:30:12.288Z,23.11
2022-08-30T10:31:12.169Z,23.44
2022-08-30T10:32:12.163Z,23.44
2022-08-30T10:33:12.163Z,23.67
2022-08-30T10:34:12.163Z,23.28
2022-08-30T10:35:13.605Z,22.94
2022-08-30T10:36:12.171Z,23.28
2022-08-30T10:37:12.170Z,23.44
2022-08-30T10:38:12.160Z,23.44
2022-08-30T10:39:12.163Z,23.11
2022-08-30T10:40:12.321Z,22.94
2022-08-30T10:41:12.173Z,23.67
2022-08-30T10:42:12.173Z,23.67
2022-08-30T10:43:12.199Z,24
2022-08-30T10:44:12.172Z,24.89
2022-08-30T10:45:12.180Z,24.17
2022-08-30T10:46:12.175Z,23.83
2022-08-30T10:47:12.179Z,23.83
2022-08-30T10:48:12.315Z,24.17
2022-08-30T10:49:12.177Z,24.17
2022-08-30T10:50:12.172Z,24.67
2022-08-30T10:51:12.171Z,24.17
2022-08-30T10:52:12.174Z,23.83
2022-08-30T10:53:12.174Z,24.33
2022-08-30T10:54:12.179Z,25.06
2022-08-30T10:55:12.173Z,25.78
2022-08-30T10:56:13.078Z,25.61
2022-08-30T10:57:12.181Z,24.5
2022-08-30T10:58:12.187Z,24.89
2022-08-30T10:59:12.196Z,26
2022-08-30T11:00:12.191Z,25.78
2022-08-30T11:01:12.496Z,25.22
2022-08-30T11:02:12.182Z,25.22
2022-08-30T11:03:12.192Z,24.17
2022-08-30T11:04:14.247Z,24.89
2022-08-30T11:05:12.181Z,25.22
2022-08-30T11:06:12.193Z,26.33
2022-08-30T11:07:12.187Z,26.33
2022-08-30T11:08:14.146Z,26.89
2022-08-30T11:09:12.196Z,25.61
2022-08-30T11:10:12.203Z,24.33
2022-08-30T11:11:12.608Z,24.67
2022-08-30T11:12:12.193Z,24.89
2022-08-30T11:13:12.277Z,25.22
2022-08-30T11:14:12.194Z,26.17
2022-08-30T11:15:12.204Z,25.22
2022-08-30T11:16:12.196Z,25.11
2022-08-30T11:17:12.202Z,25.78
2022-08-30T11:18:12.204Z,25.61
2022-08-30T11:19:12.194Z,25.44
2022-08-30T11:20:12.203Z,25.44
2022-08-30T11:21:14.244Z,24.67
2022-08-30T11:22:12.206Z,24.89
2022-08-30T11:23:12.231Z,25.61
2022-08-30T11:24:12.211Z,25.44
2022-08-30T11:25:12.212Z,25.22
2022-08-30T11:26:12.248Z,25.44
2022-08-30T11:27:12.209Z,25.22
2022-08-30T11:28:12.422Z,26
2022-08-30T11:29:12.213Z,26.56
2022-08-30T11:30:13.331Z,26.33
2022-08-30T11:31:12.315Z,26.56
2022-08-30T11:32:12.214Z,25.78
2022-08-30T11:33:12.249Z,26
2022-08-30T11:34:12.222Z,26
2022-08-30T11:35:12.208Z,25.78
2022-08-30T11:36:12.209Z,26.33
2022-08-30T11:37:12.213Z,25.44
2022-08-30T11:38:12.293Z,25.22
2022-08-30T11:39:12.225Z,25.44
2022-08-30T11:41:12.218Z,25.44
2022-08-30T11:42:12.222Z,25.44
2022-08-30T11:43:12.237Z,26
2022-08-30T11:44:12.223Z,26
2022-08-30T11:45:12.219Z,26
2022-08-30T11:46:14.476Z,26.56
2022-08-30T11:47:12.216Z,26.56
2022-08-30T11:48:12.232Z,26.56
2022-08-30T11:49:12.220Z,26.89
2022-08-30T11:50:12.542Z,27.39
2022-08-30T11:51:12.221Z,26.89
2022-08-30T11:52:26.789Z,26.94
2022-08-30T11:53:12.299Z,28.11
2022-08-30T11:54:12.231Z,28.11
2022-08-30T11:55:12.228Z,28.56
2022-08-30T11:56:12.226Z,28.11
2022-08-30T11:57:12.233Z,28.56
2022-08-30T11:58:12.340Z,28.72
2022-08-30T11:59:12.221Z,26.89
2022-08-30T12:00:12.227Z,26.56
2022-08-30T12:01:25.890Z,26.33
2022-08-30T12:02:12.344Z,26.56
2022-08-30T12:03:12.334Z,26.94
2022-08-30T12:04:15.167Z,26.56
2022-08-30T12:05:12.220Z,26
2022-08-30T12:06:12.228Z,25.61
2022-08-30T12:07:12.229Z,25.44
2022-08-30T12:08:12.236Z,26
2022-08-30T12:09:12.227Z,26.17
2022-08-30T12:10:12.225Z,26.56
2022-08-30T12:11:12.231Z,27.39
2022-08-30T12:12:12.225Z,27.5
2022-08-30T12:13:12.238Z,26.72
2022-08-30T12:14:15.458Z,26.94
2022-08-30T12:15:12.231Z,26.89
2022-08-30T12:16:12.297Z,26.56
2022-08-30T12:17:12.227Z,26.89
2022-08-30T12:18:13.187Z,26.89
2022-08-30T12:19:13.206Z,26.94
2022-08-30T12:20:12.234Z,26.94
2022-08-30T12:21:12.233Z,26.72
2022-08-30T12:22:12.231Z,26.56
2022-08-30T12:23:12.233Z,27.17
2022-08-30T12:24:12.230Z,27.5
2022-08-30T12:25:12.244Z,26.94
2022-08-30T12:26:12.231Z,26.72
2022-08-30T12:27:12.230Z,26.56
2022-08-30T12:28:12.332Z,26.94
2022-08-30T12:29:12.228Z,27.22
2022-08-30T12:30:12.231Z,27.94
2022-08-30T12:31:12.234Z,27.72
2022-08-30T12:32:12.276Z,27.5
2022-08-30T12:33:12.236Z,27
2022-08-30T12:34:12.242Z,27.39
2022-08-30T12:35:12.238Z,27.39
2022-08-30T12:36:12.238Z,27.67
2022-08-30T12:37:12.249Z,27.5
2022-08-30T12:38:12.245Z,27.72
2022-08-30T12:39:12.245Z,27.5
2022-08-30T12:40:12.272Z,27.72
2022-08-30T12:41:12.242Z,27.72
2022-08-30T12:42:12.248Z,26.94
2022-08-30T12:43:12.256Z,27.17
2022-08-30T12:44:12.253Z,27.17
2022-08-30T12:45:12.257Z,27.17
2022-08-30T12:46:12.321Z,27.17
2022-08-30T12:47:12.251Z,27.72
2022-08-30T12:48:12.315Z,27.72
2022-08-30T12:49:12.256Z,27.72
2022-08-30T12:50:12.275Z,26.83
2022-08-30T12:51:12.257Z,27.17
2022-08-30T12:52:12.262Z,27.39
2022-08-30T12:53:14.051Z,27.5
2022-08-30T12:54:12.259Z,27.39
2022-08-30T12:55:16.414Z,26.94
2022-08-30T12:56:12.263Z,27.72
2022-08-30T12:57:25.432Z,28.33